Tampa, Florida
Traffic Map
Current Weather Conditions
Tampa, Florida
Clear
Clear
75°
Feels Like: 75°
Wind Chill: 75° Ceiling: Unl
Heat Index: 75° Visibility: 10mi
Dew Point: 68° Wind: 6mph
Humidity: 79% Direction: 170° (S)
Pressure: 29.92in Gusts: 0mph
Raw Report DataKTPA 300853Z 17005KT 10SM CLR 24/20 A2992 RMK AO2 SLP133 T02390200 56007
Traffic Incident Summary
Active as of:
Severity:
Category:
InformationThere was an issue retrieving the traffic information for this location. Please try a different location or try again shortly.
Advertisements
Track Severe Weather on mobile